New York, New York
Traffic Map
Current Weather Conditions
New York, New York
Overcast
Overcast
22°
Feels Like: 22°
Wind Chill: 22° Ceiling: 1100
Heat Index: 22° Visibility: 7mi
Dew Point: 19° Wind: 3mph
Humidity: 84% Direction: ° ()
Pressure: 30.17in Gusts: 0mph
Raw Report DataKNYC 280951Z AUTO VRB03KT 7SM OVC011 22/19 A3017 RMK AO2 SLP205 T02170189
Traffic Incident Summary
Active as of:
Severity:
Category:
InformationThere was an issue retrieving the traffic information for this location. Please try a different location or try again shortly.
Advertisements
Track Severe Weather on mobile